sensor_id;sensor_type;location;lat;lon;timestamp;pressure;altitude;pressure_sealevel;temperature
13219;BMP180;6674;49.152;11.918;2023-02-01T00:01:54;96287.69;;;2.88
13219;BMP180;6674;49.152;11.918;2023-02-01T00:04:21;96288.31;;;2.90
13219;BMP180;6674;49.152;11.918;2023-02-01T00:06:48;96287.53;;;2.89
13219;BMP180;6674;49.152;11.918;2023-02-01T00:09:15;96276.72;;;2.87
13219;BMP180;6674;49.152;11.918;2023-02-01T00:11:42;96279.06;;;2.89
13219;BMP180;6674;49.152;11.918;2023-02-01T00:14:08;96273.81;;;2.90
13219;BMP180;6674;49.152;11.918;2023-02-01T00:16:35;96278.75;;;2.92
13219;BMP180;6674;49.152;11.918;2023-02-01T00:19:06;96283.53;;;3.02
13219;BMP180;6674;49.152;11.918;2023-02-01T00:21:33;96291.00;;;3.12
13219;BMP180;6674;49.152;11.918;2023-02-01T00:24:00;96298.50;;;3.05
13219;BMP180;6674;49.152;11.918;2023-02-01T00:26:35;96294.19;;;3.06
13219;BMP180;6674;49.152;11.918;2023-02-01T00:29:04;96296.91;;;3.04
13219;BMP180;6674;49.152;11.918;2023-02-01T00:31:31;96294.03;;;2.99
13219;BMP180;6674;49.152;11.918;2023-02-01T00:33:58;96281.91;;;3.01
13219;BMP180;6674;49.152;11.918;2023-02-01T00:36:26;96290.06;;;2.97
13219;BMP180;6674;49.152;11.918;2023-02-01T00:38:53;96284.16;;;2.97
13219;BMP180;6674;49.152;11.918;2023-02-01T00:41:20;96268.25;;;3.02
13219;BMP180;6674;49.152;11.918;2023-02-01T00:43:48;96268.72;;;3.06
13219;BMP180;6674;49.152;11.918;2023-02-01T00:46:16;96279.06;;;2.97
13219;BMP180;6674;49.152;11.918;2023-02-01T00:48:43;96283.53;;;3.02
13219;BMP180;6674;49.152;11.918;2023-02-01T00:51:12;96259.97;;;3.00
13219;BMP180;6674;49.152;11.918;2023-02-01T00:53:40;96278.91;;;3.06
13219;BMP180;6674;49.152;11.918;2023-02-01T00:56:07;96261.69;;;3.00
13219;BMP180;6674;49.152;11.918;2023-02-01T00:58:34;96274.91;;;3.11
13219;BMP180;6674;49.152;11.918;2023-02-01T01:01:02;96263.94;;;3.03
13219;BMP180;6674;49.152;11.918;2023-02-01T01:03:30;96274.59;;;3.06
13219;BMP180;6674;49.152;11.918;2023-02-01T01:06:07;96285.59;;;3.07
13219;BMP180;6674;49.152;11.918;2023-02-01T01:08:35;96272.03;;;3.14
13219;BMP180;6674;49.152;11.918;2023-02-01T01:11:07;96273.00;;;3.05
13219;BMP180;6674;49.152;11.918;2023-02-01T01:13:36;96286.38;;;3.07
13219;BMP180;6674;49.152;11.918;2023-02-01T01:16:05;96269.16;;;3.09
13219;BMP180;6674;49.152;11.918;2023-02-01T01:18:33;96272.03;;;3.14
13219;BMP180;6674;49.152;11.918;2023-02-01T01:21:00;96273.31;;;3.10
13219;BMP180;6674;49.152;11.918;2023-02-01T01:23:27;96290.53;;;3.16
13219;BMP180;6674;49.152;11.918;2023-02-01T01:25:54;96275.53;;;3.21
13219;BMP180;6674;49.152;11.918;2023-02-01T01:28:22;96289.56;;;3.17
13219;BMP180;6674;49.152;11.918;2023-02-01T01:30:49;96294.34;;;3.12
13219;BMP180;6674;49.152;11.918;2023-02-01T01:33:15;96282.38;;;3.21
13219;BMP180;6674;49.152;11.918;2023-02-01T01:35:42;96276.81;;;3.17
13219;BMP180;6674;49.152;11.918;2023-02-01T01:38:10;96301.03;;;3.21
13219;BMP180;6674;49.152;11.918;2023-02-01T01:40:37;96276.50;;;3.12
13219;BMP180;6674;49.152;11.918;2023-02-01T01:43:12;96267.41;;;3.18
13219;BMP180;6674;49.152;11.918;2023-02-01T01:45:40;96270.44;;;3.21
13219;BMP180;6674;49.152;11.918;2023-02-01T01:48:12;96265.97;;;3.15
13219;BMP180;6674;49.152;11.918;2023-02-01T01:50:42;96265.34;;;3.21
13219;BMP180;6674;49.152;11.918;2023-02-01T01:53:16;96253.88;;;3.17
13219;BMP180;6674;49.152;11.918;2023-02-01T01:55:44;96247.31;;;3.23
13219;BMP180;6674;49.152;11.918;2023-02-01T01:58:14;96255.63;;;3.17
13219;BMP180;6674;49.152;11.918;2023-02-01T02:00:43;96245.91;;;3.12
13219;BMP180;6674;49.152;11.918;2023-02-01T02:03:14;96244.13;;;3.21
13219;BMP180;6674;49.152;11.918;2023-02-01T02:05:42;96238.88;;;3.22
13219;BMP180;6674;49.152;11.918;2023-02-01T02:08:09;96247.81;;;3.18
13219;BMP180;6674;49.152;11.918;2023-02-01T02:10:36;96232.19;;;3.21
13219;BMP180;6674;49.152;11.918;2023-02-01T02:13:22;96235.06;;;3.26
13219;BMP180;6674;49.152;11.918;2023-02-01T02:16:00;96229.97;;;3.26
13219;BMP180;6674;49.152;11.918;2023-02-01T02:18:36;96227.34;;;3.34
13219;BMP180;6674;49.152;11.918;2023-02-01T02:21:14;96241.72;;;3.27
13219;BMP180;6674;49.152;11.918;2023-02-01T02:24:10;96227.09;;;3.21
13219;BMP180;6674;49.152;11.918;2023-02-01T02:26:55;96229.47;;;3.23
13219;BMP180;6674;49.152;11.918;2023-02-01T02:33:12;96220.72;;;3.25
13219;BMP180;6674;49.152;11.918;2023-02-01T02:35:45;96238.09;;;3.22
13219;BMP180;6674;49.152;11.918;2023-02-01T02:38:18;96241.75;;;3.19
13219;BMP180;6674;49.152;11.918;2023-02-01T02:40:49;96237.63;;;3.18
13219;BMP180;6674;49.152;11.918;2023-02-01T02:43:21;96234.13;;;3.11
13219;BMP180;6674;49.152;11.918;2023-02-01T02:46:12;96223.13;;;3.19
13219;BMP180;6674;49.152;11.918;2023-02-01T02:49:01;96218.03;;;3.11
13219;BMP180;6674;49.152;11.918;2023-02-01T02:51:32;96219.47;;;3.13
13219;BMP180;6674;49.152;11.918;2023-02-01T02:54:22;96217.56;;;3.15
13219;BMP180;6674;49.152;11.918;2023-02-01T02:57:10;96216.63;;;3.08
13219;BMP180;6674;49.152;11.918;2023-02-01T02:59:57;96214.38;;;3.13
13219;BMP180;6674;49.152;11.918;2023-02-01T03:02:43;96219.47;;;3.13
13219;BMP180;6674;49.152;11.918;2023-02-01T03:05:33;96205.91;;;3.21
13219;BMP180;6674;49.152;11.918;2023-02-01T03:08:03;96205.75;;;3.22
13219;BMP180;6674;49.152;11.918;2023-02-01T03:10:35;96208.97;;;3.16
13219;BMP180;6674;49.152;11.918;2023-02-01T03:13:06;96206.75;;;3.13
13219;BMP180;6674;49.152;11.918;2023-02-01T03:15:38;96199.72;;;3.15
13219;BMP180;6674;49.152;11.918;2023-02-01T03:18:07;96204.50;;;3.10
13219;BMP180;6674;49.152;11.918;2023-02-01T03:20:40;96188.91;;;3.13
13219;BMP180;6674;49.152;11.918;2023-02-01T03:23:11;96187.28;;;3.12
13219;BMP180;6674;49.152;11.918;2023-02-01T03:25:39;96181.88;;;3.15
13219;BMP180;6674;49.152;11.918;2023-02-01T03:28:12;96182.00;;;3.22
13219;BMP180;6674;49.152;11.918;2023-02-01T03:30:42;96185.66;;;3.19
13219;BMP180;6674;49.152;11.918;2023-02-01T03:33:14;96178.47;;;3.23
13219;BMP180;6674;49.152;11.918;2023-02-01T03:35:55;96167.19;;;3.25
13219;BMP180;6674;49.152;11.918;2023-02-01T03:38:27;96166.09;;;3.20
13219;BMP180;6674;49.152;11.918;2023-02-01T03:41:01;96168.19;;;3.16
13219;BMP180;6674;49.152;11.918;2023-02-01T03:43:31;96161.50;;;3.15
13219;BMP180;6674;49.152;11.918;2023-02-01T03:46:01;96152.91;;;3.16
13219;BMP180;6674;49.152;11.918;2023-02-01T03:48:29;96160.56;;;3.08
13219;BMP180;6674;49.152;11.918;2023-02-01T03:51:00;96151.47;;;3.06
13219;BMP180;6674;49.152;11.918;2023-02-01T03:53:28;96155.97;;;2.96
13219;BMP180;6674;49.152;11.918;2023-02-01T03:55:55;96152.97;;;2.93
13219;BMP180;6674;49.152;11.918;2023-02-01T03:58:23;96167.28;;;2.94
13219;BMP180;6674;49.152;11.918;2023-02-01T04:00:51;96158.03;;;3.00
13219;BMP180;6674;49.152;11.918;2023-02-01T04:03:19;96169.94;;;3.08
13219;BMP180;6674;49.152;11.918;2023-02-01T04:05:47;96167.91;;;3.03
13219;BMP180;6674;49.152;11.918;2023-02-01T04:08:15;96161.19;;;3.10
13219;BMP180;6674;49.152;11.918;2023-02-01T04:10:42;96173.31;;;3.08
13219;BMP180;6674;49.152;11.918;2023-02-01T04:13:09;96164.19;;;3.14
13219;BMP180;6674;49.152;11.918;2023-02-01T04:15:35;96166.75;;;3.14
13219;BMP180;6674;49.152;11.918;2023-02-01T04:18:03;96180.28;;;3.14
13219;BMP180;6674;49.152;11.918;2023-02-01T04:20:30;96183.13;;;3.19
13219;BMP180;6674;49.152;11.918;2023-02-01T04:22:57;96178.69;;;3.21
13219;BMP180;6674;49.152;11.918;2023-02-01T04:25:25;96191.72;;;3.26
13219;BMP180;6674;49.152;11.918;2023-02-01T04:27:52;96170.06;;;3.22
13219;BMP180;6674;49.152;11.918;2023-02-01T04:30:19;96172.91;;;3.27
13219;BMP180;6674;49.152;11.918;2023-02-01T04:32:45;96166.22;;;3.26
13219;BMP180;6674;49.152;11.918;2023-02-01T04:35:12;96168.78;;;3.26
13219;BMP180;6674;49.152;11.918;2023-02-01T04:37:38;96161.63;;;3.22
13219;BMP180;6674;49.152;11.918;2023-02-01T04:40:06;96152.34;;;3.29
13219;BMP180;6674;49.152;11.918;2023-02-01T04:42:36;96143.44;;;3.25
13219;BMP180;6674;49.152;11.918;2023-02-01T04:45:04;96146.63;;;3.27
13219;BMP180;6674;49.152;11.918;2023-02-01T04:47:30;96136.09;;;3.30
13219;BMP180;6674;49.152;11.918;2023-02-01T04:49:57;96126.69;;;3.30
13219;BMP180;6674;49.152;11.918;2023-02-01T04:52:24;96146.13;;;3.31
13219;BMP180;6674;49.152;11.918;2023-02-01T04:54:51;96147.69;;;3.32
13219;BMP180;6674;49.152;11.918;2023-02-01T04:57:22;96132.41;;;3.32
13219;BMP180;6674;49.152;11.918;2023-02-01T04:59:50;96142.28;;;3.35
13219;BMP180;6674;49.152;11.918;2023-02-01T05:02:17;96128.91;;;3.33
13219;BMP180;6674;49.152;11.918;2023-02-01T05:04:44;96123.34;;;3.30
13219;BMP180;6674;49.152;11.918;2023-02-01T05:07:10;96120.63;;;3.31
13219;BMP180;6674;49.152;11.918;2023-02-01T05:09:37;96124.91;;;3.31
13219;BMP180;6674;49.152;11.918;2023-02-01T05:12:05;96140.34;;;3.37
13219;BMP180;6674;49.152;11.918;2023-02-01T05:14:50;96143.03;;;3.43
13219;BMP180;6674;49.152;11.918;2023-02-01T05:17:19;96131.09;;;3.44
13219;BMP180;6674;49.152;11.918;2023-02-01T05:19:45;96124.06;;;3.46
13219;BMP180;6674;49.152;11.918;2023-02-01T05:22:12;96115.59;;;3.45
13219;BMP180;6674;49.152;11.918;2023-02-01T05:24:39;96133.34;;;3.39
13219;BMP180;6674;49.152;11.918;2023-02-01T05:27:06;96136.81;;;3.46
13219;BMP180;6674;49.152;11.918;2023-02-01T05:29:34;96125.78;;;3.45
13219;BMP180;6674;49.152;11.918;2023-02-01T05:32:02;96114.81;;;3.45
13219;BMP180;6674;49.152;11.918;2023-02-01T05:34:29;96120.06;;;3.43
13219;BMP180;6674;49.152;11.918;2023-02-01T05:36:55;96115.59;;;3.45
13219;BMP180;6674;49.152;11.918;2023-02-01T05:39:22;96117.34;;;3.45
13219;BMP180;6674;49.152;11.918;2023-02-01T05:41:48;96094.75;;;3.42
13219;BMP180;6674;49.152;11.918;2023-02-01T05:44:15;96091.06;;;3.44
13219;BMP180;6674;49.152;11.918;2023-02-01T05:46:42;96100.19;;;3.39
13219;BMP180;6674;49.152;11.918;2023-02-01T05:49:10;96077.72;;;3.42
13219;BMP180;6674;49.152;11.918;2023-02-01T05:51:36;96091.28;;;3.35
13219;BMP180;6674;49.152;11.918;2023-02-01T05:54:03;96090.63;;;3.41
13219;BMP180;6674;49.152;11.918;2023-02-01T05:56:29;96094.22;;;3.24
13219;BMP180;6674;49.152;11.918;2023-02-01T05:58:56;96085.03;;;3.15
13219;BMP180;6674;49.152;11.918;2023-02-01T06:01:23;96084.25;;;3.15
13219;BMP180;6674;49.152;11.918;2023-02-01T06:03:50;96080.47;;;3.03
13219;BMP180;6674;49.152;11.918;2023-02-01T06:06:18;96081.06;;;3.05
13219;BMP180;6674;49.152;11.918;2023-02-01T06:08:45;96086.06;;;2.99
13219;BMP180;6674;49.152;11.918;2023-02-01T06:11:12;96078.06;;;3.01
13219;BMP180;6674;49.152;11.918;2023-02-01T06:13:39;96084.81;;;2.95
13219;BMP180;6674;49.152;11.918;2023-02-01T06:16:06;96090.22;;;2.92
13219;BMP180;6674;49.152;11.918;2023-02-01T06:18:33;96078.44;;;2.99
13219;BMP180;6674;49.152;11.918;2023-02-01T06:21:00;96086.72;;;2.93
13219;BMP180;6674;49.152;11.918;2023-02-01T06:23:29;96081.63;;;2.93
13219;BMP180;6674;49.152;11.918;2023-02-01T06:26:01;96093.38;;;2.94
13219;BMP180;6674;49.152;11.918;2023-02-01T06:28:29;96084.19;;;2.93
13219;BMP180;6674;49.152;11.918;2023-02-01T06:30:56;96082.88;;;2.97
13219;BMP180;6674;49.152;11.918;2023-02-01T06:33:23;96089.56;;;2.98
13219;BMP180;6674;49.152;11.918;2023-02-01T06:35:56;96093.72;;;2.99
13219;BMP180;6674;49.152;11.918;2023-02-01T06:38:24;96082.09;;;2.96
13219;BMP180;6674;49.152;11.918;2023-02-01T06:40:53;96092.13;;;2.98
13219;BMP180;6674;49.152;11.918;2023-02-01T06:43:20;96084.47;;;2.98
13219;BMP180;6674;49.152;11.918;2023-02-01T06:45:47;96092.78;;;2.92
13219;BMP180;6674;49.152;11.918;2023-02-01T06:48:14;96086.13;;;2.83
13219;BMP180;6674;49.152;11.918;2023-02-01T06:50:40;96100.44;;;2.84
13219;BMP180;6674;49.152;11.918;2023-02-01T06:53:07;96099.47;;;2.93
13219;BMP180;6674;49.152;11.918;2023-02-01T06:55:33;96109.59;;;3.08
13219;BMP180;6674;49.152;11.918;2023-02-01T06:58:02;96112.31;;;3.07
13219;BMP180;6674;49.152;11.918;2023-02-01T07:00:29;96112.19;;;3.00
13219;BMP180;6674;49.152;11.918;2023-02-01T07:02:57;96102.16;;;2.99
13219;BMP180;6674;49.152;11.918;2023-02-01T07:05:24;96122.09;;;2.88
13219;BMP180;6674;49.152;11.918;2023-02-01T07:07:50;96136.03;;;2.61
13219;BMP180;6674;49.152;11.918;2023-02-01T07:10:17;96154.03;;;2.44
13219;BMP180;6674;49.152;11.918;2023-02-01T07:12:45;96130.63;;;2.57
13219;BMP180;6674;49.152;11.918;2023-02-01T07:15:13;96133.50;;;2.54
13219;BMP180;6674;49.152;11.918;2023-02-01T07:17:40;96121.88;;;2.51
13219;BMP180;6674;49.152;11.918;2023-02-01T07:20:08;96115.84;;;2.44
13219;BMP180;6674;49.152;11.918;2023-02-01T07:22:34;96124.78;;;2.40
13219;BMP180;6674;49.152;11.918;2023-02-01T07:25:01;96110.00;;;2.28
13219;BMP180;6674;49.152;11.918;2023-02-01T07:27:28;96128.28;;;2.23
13219;BMP180;6674;49.152;11.918;2023-02-01T07:29:54;96122.41;;;2.23
13219;BMP180;6674;49.152;11.918;2023-02-01T07:32:23;96120.16;;;2.20
13219;BMP180;6674;49.152;11.918;2023-02-01T07:34:49;96114.31;;;2.19
13219;BMP180;6674;49.152;11.918;2023-02-01T07:37:16;96116.69;;;2.21
13219;BMP180;6674;49.152;11.918;2023-02-01T07:39:43;96110.00;;;2.28
13219;BMP180;6674;49.152;11.918;2023-02-01T07:42:10;96105.06;;;2.26
13219;BMP180;6674;49.152;11.918;2023-02-01T07:44:36;96108.22;;;2.28
13219;BMP180;6674;49.152;11.918;2023-02-01T07:47:03;96094.56;;;2.29
13219;BMP180;6674;49.152;11.918;2023-02-01T07:49:32;96111.09;;;2.33
13219;BMP180;6674;49.152;11.918;2023-02-01T07:51:58;96111.25;;;2.32
13219;BMP180;6674;49.152;11.918;2023-02-01T07:54:27;96115.22;;;2.42
13219;BMP180;6674;49.152;11.918;2023-02-01T07:56:54;96111.84;;;2.50
13219;BMP180;6674;49.152;11.918;2023-02-01T07:59:20;96114.53;;;2.56
13219;BMP180;6674;49.152;11.918;2023-02-01T08:01:47;96117.91;;;2.57
13219;BMP180;6674;49.152;11.918;2023-02-01T08:04:13;96106.88;;;2.64
13219;BMP180;6674;49.152;11.918;2023-02-01T08:06:41;96110.34;;;2.71
13219;BMP180;6674;49.152;11.918;2023-02-01T08:09:08;96120.22;;;2.74
13219;BMP180;6674;49.152;11.918;2023-02-01T08:11:36;96117.03;;;2.72
13219;BMP180;6674;49.152;11.918;2023-02-01T08:14:05;96125.28;;;2.90
13219;BMP180;6674;49.152;11.918;2023-02-01T08:16:32;96122.72;;;2.90
13219;BMP180;6674;49.152;11.918;2023-02-01T08:19:03;96116.31;;;2.94
13219;BMP180;6674;49.152;11.918;2023-02-01T08:21:30;96114.75;;;2.93
13219;BMP180;6674;49.152;11.918;2023-02-01T08:24:04;96112.50;;;2.98
13219;BMP180;6674;49.152;11.918;2023-02-01T08:26:31;96116.25;;;3.09
13219;BMP180;6674;49.152;11.918;2023-02-01T08:29:00;96122.97;;;3.10
13219;BMP180;6674;49.152;11.918;2023-02-01T08:31:29;96118.16;;;3.15
13219;BMP180;6674;49.152;11.918;2023-02-01T08:33:58;96107.59;;;3.26
13219;BMP180;6674;49.152;11.918;2023-02-01T08:36:26;96101.81;;;3.32
13219;BMP180;6674;49.152;11.918;2023-02-01T08:38:54;96114.41;;;3.34
13219;BMP180;6674;49.152;11.918;2023-02-01T08:41:24;96114.50;;;3.40
13219;BMP180;6674;49.152;11.918;2023-02-01T08:43:51;96120.06;;;3.43
13219;BMP180;6674;49.152;11.918;2023-02-01T08:46:19;96120.06;;;3.43
13219;BMP180;6674;49.152;11.918;2023-02-01T08:48:46;96109.53;;;3.46
13219;BMP180;6674;49.152;11.918;2023-02-01T08:51:15;96106.22;;;3.46
13219;BMP180;6674;49.152;11.918;2023-02-01T08:53:42;96087.66;;;3.52
13219;BMP180;6674;49.152;11.918;2023-02-01T08:56:09;96111.59;;;3.51
13219;BMP180;6674;49.152;11.918;2023-02-01T08:58:38;96113.81;;;3.54
13219;BMP180;6674;49.152;11.918;2023-02-01T09:01:05;96112.50;;;3.58
13219;BMP180;6674;49.152;11.918;2023-02-01T09:03:31;96117.75;;;3.56
13219;BMP180;6674;49.152;11.918;2023-02-01T09:06:02;96101.50;;;3.57
13219;BMP180;6674;49.152;11.918;2023-02-01T09:08:28;96107.22;;;3.59
13219;BMP180;6674;49.152;11.918;2023-02-01T09:10:58;96102.75;;;3.61
13219;BMP180;6674;49.152;11.918;2023-02-01T09:13:25;96122.03;;;3.64
13219;BMP180;6674;49.152;11.918;2023-02-01T09:15:53;96127.13;;;3.64
13219;BMP180;6674;49.152;11.918;2023-02-01T09:18:20;96132.25;;;3.64
13219;BMP180;6674;49.152;11.918;2023-02-01T09:20:47;96143.69;;;3.68
13219;BMP180;6674;49.152;11.918;2023-02-01T09:23:13;96133.47;;;3.68
13219;BMP180;6674;49.152;11.918;2023-02-01T09:25:40;96142.28;;;3.65
13219;BMP180;6674;49.152;11.918;2023-02-01T09:28:07;96123.09;;;3.69
13219;BMP180;6674;49.152;11.918;2023-02-01T09:30:35;96137.78;;;3.67
13219;BMP180;6674;49.152;11.918;2023-02-01T09:33:04;96138.19;;;3.79
13219;BMP180;6674;49.152;11.918;2023-02-01T09:35:30;96135.94;;;3.84
13219;BMP180;6674;49.152;11.918;2023-02-01T09:37:58;96147.78;;;3.77
13219;BMP180;6674;49.152;11.918;2023-02-01T09:40:25;96136.44;;;3.79
13219;BMP180;6674;49.152;11.918;2023-02-01T09:43:09;96159.56;;;3.78
13219;BMP180;6674;49.152;11.918;2023-02-01T09:45:44;96163.81;;;3.85
13219;BMP180;6674;49.152;11.918;2023-02-01T09:48:19;96164.78;;;3.84
13219;BMP180;6674;49.152;11.918;2023-02-01T09:50:51;96158.88;;;3.84
13219;BMP180;6674;49.152;11.918;2023-02-01T09:53:23;96150.94;;;3.79
13219;BMP180;6674;49.152;11.918;2023-02-01T09:55:55;96165.59;;;3.85
13219;BMP180;6674;49.152;11.918;2023-02-01T09:58:27;96172.16;;;3.79
13219;BMP180;6674;49.152;11.918;2023-02-01T10:00:58;96164.66;;;3.78
13219;BMP180;6674;49.152;11.918;2023-02-01T10:03:29;96154.50;;;3.70
13219;BMP180;6674;49.152;11.918;2023-02-01T10:09:03;96147.88;;;3.61
13219;BMP180;6674;49.152;11.918;2023-02-01T10:11:44;96145.94;;;3.63
13219;BMP180;6674;49.152;11.918;2023-02-01T10:14:30;96154.22;;;3.65
13219;BMP180;6674;49.152;11.918;2023-02-01T10:17:11;96157.06;;;3.70
13219;BMP180;6674;49.152;11.918;2023-02-01T10:19:45;96156.72;;;3.73
13219;BMP180;6674;49.152;11.918;2023-02-01T10:22:20;96176.50;;;3.71
13219;BMP180;6674;49.152;11.918;2023-02-01T10:24:53;96148.53;;;3.85
13219;BMP180;6674;49.152;11.918;2023-02-01T10:27:29;96150.63;;;3.82
13219;BMP180;6674;49.152;11.918;2023-02-01T10:30:05;96165.41;;;3.86
13219;BMP180;6674;49.152;11.918;2023-02-01T10:32:34;96156.47;;;3.90
13219;BMP180;6674;49.152;11.918;2023-02-01T10:35:09;96150.31;;;3.99
13219;BMP180;6674;49.152;11.918;2023-02-01T10:37:41;96184.25;;;4.07
13219;BMP180;6674;49.152;11.918;2023-02-01T10:40:16;96208.22;;;3.98
13219;BMP180;6674;49.152;11.918;2023-02-01T10:42:43;96238.69;;;3.70
13219;BMP180;6674;49.152;11.918;2023-02-01T10:45:15;96238.56;;;3.25
13219;BMP180;6674;49.152;11.918;2023-02-01T10:47:43;96211.19;;;3.11
13219;BMP180;6674;49.152;11.918;2023-02-01T10:50:17;96212.00;;;3.12
13219;BMP180;6674;49.152;11.918;2023-02-01T10:52:49;96198.78;;;3.46
13219;BMP180;6674;49.152;11.918;2023-02-01T10:55:32;96216.75;;;3.61
13219;BMP180;6674;49.152;11.918;2023-02-01T10:58:00;96220.13;;;3.84
13219;BMP180;6674;49.152;11.918;2023-02-01T11:00:27;96203.34;;;3.89
13219;BMP180;6674;49.152;11.918;2023-02-01T11:02:55;96199.78;;;3.98
13219;BMP180;6674;49.152;11.918;2023-02-01T11:05:24;96190.09;;;3.93
13219;BMP180;6674;49.152;11.918;2023-02-01T11:07:53;96195.09;;;4.09
13219;BMP180;6674;49.152;11.918;2023-02-01T11:10:36;96191.31;;;4.20
13219;BMP180;6674;49.152;11.918;2023-02-01T11:13:04;96213.41;;;4.35
13219;BMP180;6674;49.152;11.918;2023-02-01T11:15:31;96186.41;;;4.55
13219;BMP180;6674;49.152;11.918;2023-02-01T11:18:15;96185.88;;;4.45
13219;BMP180;6674;49.152;11.918;2023-02-01T11:20:45;96184.81;;;4.54
13219;BMP180;6674;49.152;11.918;2023-02-01T11:23:16;96156.56;;;4.55
13219;BMP180;6674;49.152;11.918;2023-02-01T11:25:48;96170.75;;;4.58
13219;BMP180;6674;49.152;11.918;2023-02-01T11:28:16;96165.53;;;4.51
13219;BMP180;6674;49.152;11.918;2023-02-01T11:30:45;96157.25;;;4.64
13219;BMP180;6674;49.152;11.918;2023-02-01T11:33:16;96147.31;;;4.69
13219;BMP180;6674;49.152;11.918;2023-02-01T11:35:47;96158.00;;;4.86
13219;BMP180;6674;49.152;11.918;2023-02-01T11:38:21;96157.81;;;5.02
13219;BMP180;6674;49.152;11.918;2023-02-01T11:40:48;96184.72;;;4.98
13219;BMP180;6674;49.152;11.918;2023-02-01T11:43:18;96157.81;;;5.16
13219;BMP180;6674;49.152;11.918;2023-02-01T11:45:54;96141.91;;;5.35
13219;BMP180;6674;49.152;11.918;2023-02-01T11:48:23;96162.38;;;5.35
13219;BMP180;6674;49.152;11.918;2023-02-01T11:50:59;96158.16;;;5.42
13219;BMP180;6674;49.152;11.918;2023-02-01T11:53:41;96156.28;;;5.51
13219;BMP180;6674;49.152;11.918;2023-02-01T11:56:15;96155.19;;;5.59
13219;BMP180;6674;49.152;11.918;2023-02-01T11:58:56;96136.31;;;5.75
13219;BMP180;6674;49.152;11.918;2023-02-01T12:01:42;96116.78;;;5.74
13219;BMP180;6674;49.152;11.918;2023-02-01T12:04:37;96145.03;;;5.80
13219;BMP180;6674;49.152;11.918;2023-02-01T12:07:14;96141.09;;;5.63
13219;BMP180;6674;49.152;11.918;2023-02-01T12:09:55;96138.78;;;5.68
13219;BMP180;6674;49.152;11.918;2023-02-01T12:12:26;96127.28;;;5.64
13219;BMP180;6674;49.152;11.918;2023-02-01T12:15:08;96135.47;;;5.54
13219;BMP180;6674;49.152;11.918;2023-02-01T12:17:50;96126.31;;;5.65
13219;BMP180;6674;49.152;11.918;2023-02-01T12:20:31;96141.63;;;5.45
13219;BMP180;6674;49.152;11.918;2023-02-01T12:23:24;96143.09;;;5.33
13219;BMP180;6674;49.152;11.918;2023-02-01T12:26:02;96142.56;;;5.23
13219;BMP180;6674;49.152;11.918;2023-02-01T12:31:36;96131.81;;;5.13
13219;BMP180;6674;49.152;11.918;2023-02-01T12:36:59;96141.06;;;5.14
13219;BMP180;6674;49.152;11.918;2023-02-01T12:39:38;96129.53;;;5.18
13219;BMP180;6674;49.152;11.918;2023-02-01T12:42:11;96145.91;;;5.09
13219;BMP180;6674;49.152;11.918;2023-02-01T12:44:45;96144.34;;;4.94
13219;BMP180;6674;49.152;11.918;2023-02-01T12:47:18;96135.44;;;4.90
13219;BMP180;6674;49.152;11.918;2023-02-01T12:49:51;96148.41;;;4.88
13219;BMP180;6674;49.152;11.918;2023-02-01T12:52:25;96154.81;;;4.84
13219;BMP180;6674;49.152;11.918;2023-02-01T12:54:58;96154.22;;;4.82
13219;BMP180;6674;49.152;11.918;2023-02-01T12:57:30;96150.50;;;4.71
13219;BMP180;6674;49.152;11.918;2023-02-01T13:00:05;96152.16;;;4.64
13219;BMP180;6674;49.152;11.918;2023-02-01T13:02:39;96149.34;;;4.73
13219;BMP180;6674;49.152;11.918;2023-02-01T13:05:14;96157.81;;;4.59
13219;BMP180;6674;49.152;11.918;2023-02-01T13:07:46;96158.16;;;4.56
13219;BMP180;6674;49.152;11.918;2023-02-01T13:10:18;96144.84;;;4.61
13219;BMP180;6674;49.152;11.918;2023-02-01T13:12:54;96161.56;;;4.49
13219;BMP180;6674;49.152;11.918;2023-02-01T13:15:25;96138.66;;;4.41
13219;BMP180;6674;49.152;11.918;2023-02-01T13:17:55;96148.88;;;4.41
13219;BMP180;6674;49.152;11.918;2023-02-01T13:20:28;96154.50;;;4.36
13219;BMP180;6674;49.152;11.918;2023-02-01T13:23:00;96142.88;;;4.34
13219;BMP180;6674;49.152;11.918;2023-02-01T13:25:35;96140.59;;;4.39
13219;BMP180;6674;49.152;11.918;2023-02-01T13:28:09;96137.56;;;4.21
13219;BMP180;6674;49.152;11.918;2023-02-01T13:30:48;96126.31;;;4.30
13219;BMP180;6674;49.152;11.918;2023-02-01T13:33:39;96125.94;;;4.33
13219;BMP180;6674;49.152;11.918;2023-02-01T13:36:22;96115.13;;;4.31
13219;BMP180;6674;49.152;11.918;2023-02-01T13:41:57;96124.09;;;4.27
13219;BMP180;6674;49.152;11.918;2023-02-01T13:44:28;96127.88;;;4.31
13219;BMP180;6674;49.152;11.918;2023-02-01T13:46:57;96123.94;;;4.28
13219;BMP180;6674;49.152;11.918;2023-02-01T13:49:26;96127.59;;;4.26
13219;BMP180;6674;49.152;11.918;2023-02-01T13:51:56;96134.47;;;4.26
13219;BMP180;6674;49.152;11.918;2023-02-01T13:54:29;96099.75;;;4.17
13219;BMP180;6674;49.152;11.918;2023-02-01T13:57:00;96123.38;;;4.33
13219;BMP180;6674;49.152;11.918;2023-02-01T13:59:50;96126.75;;;4.33
13219;BMP180;6674;49.152;11.918;2023-02-01T14:08:41;96119.88;;;4.34
13219;BMP180;6674;49.152;11.918;2023-02-01T14:11:33;96090.91;;;4.27
13219;BMP180;6674;49.152;11.918;2023-02-01T14:17:36;96122.78;;;4.31
13219;BMP180;6674;49.152;11.918;2023-02-01T14:23:23;96098.56;;;4.27
13219;BMP180;6674;49.152;11.918;2023-02-01T14:26:10;96122.50;;;4.26
13219;BMP180;6674;49.152;11.918;2023-02-01T14:28:44;96126.22;;;4.24
13219;BMP180;6674;49.152;11.918;2023-02-01T14:31:18;96125.75;;;4.20
13219;BMP180;6674;49.152;11.918;2023-02-01T14:33:55;96106.69;;;4.08
13219;BMP180;6674;49.152;11.918;2023-02-01T14:36:23;96110.25;;;4.07
13219;BMP180;6674;49.152;11.918;2023-02-01T14:38:50;96117.00;;;4.15
13219;BMP180;6674;49.152;11.918;2023-02-01T14:41:31;96113.34;;;4.17
13219;BMP180;6674;49.152;11.918;2023-02-01T14:44:23;96106.03;;;4.14
13219;BMP180;6674;49.152;11.918;2023-02-01T14:47:28;96109.88;;;4.10
13219;BMP180;6674;49.152;11.918;2023-02-01T14:50:02;96100.13;;;4.14
13219;BMP180;6674;49.152;11.918;2023-02-01T14:52:32;96108.41;;;4.16
13219;BMP180;6674;49.152;11.918;2023-02-01T14:55:05;96106.91;;;4.21
13219;BMP180;6674;49.152;11.918;2023-02-01T14:57:37;96116.50;;;4.19
13219;BMP180;6674;49.152;11.918;2023-02-01T15:00:20;96111.16;;;4.28
13219;BMP180;6674;49.152;11.918;2023-02-01T15:02:48;96100.84;;;4.22
13219;BMP180;6674;49.152;11.918;2023-02-01T15:05:35;96096.34;;;4.24
13219;BMP180;6674;49.152;11.918;2023-02-01T15:08:20;96110.41;;;4.20
13219;BMP180;6674;49.152;11.918;2023-02-01T15:10:50;96090.81;;;4.21
13219;BMP180;6674;49.152;11.918;2023-02-01T15:13:21;96080.94;;;4.18